Markel Herrero

Chefscout - Eibar
19 Nov 2028
Sonntag
Verarbeitung

Persönlichkeit

Anpassungsfähigkeit (13) Ehrgeiz (7) Kontroverse (17) Loyalität (14) Druck (3) Professionalität (4) Fairness (15) Temperament (8)

Profil

Trainerstil Demokratisch
Lizenz Kontinentale A
Entschlossenheit 11
Menschenführung 6
Motivation 7
Disziplin 11
Arbeitszufriedenheit
100%
Ermüdung
0%
Rolle Chefscout
Gehalt 47.5K p/W
Vertrag 14.03.2030

Leistung

Verhalten Gut
Trainingseffektivität
48%
Spielerentwicklung
55%
Verletzungsprävention
60%
Taktische Umsetzung
45%

Letzte Ereignisse

Nahm an einer Scouting-Besprechung teil jetzt
Nahm an einer Scouting-Besprechung teil jetzt
Empfahl ein Transferziel jetzt
Empfahl ein Transferziel jetzt
Empfahl ein Transferziel jetzt
Spieler begutachtet jetzt
Spiel beobachtet 7T her
Spieler begutachtet 7T her

Aktuell beobachtet

155
Spieler Verein Status Fähigkeit Vertrauen Beobachtet Zuletzt beobachtet Letzte Stimme
Christ Wawa Gefle Aktiv 95 / 117 40% 3 18.11.2028 -
Lisandro Piñero Banfield Aktiv 116 / 124 40% 1 18.11.2028 -
Álvaro Montoro Botafogo Aktiv 138 / 132 40% 1 17.11.2028 -
Ibrahim Mbaye Queens Park Rangers Aktiv 140 / 140 40% 1 17.11.2028 -
Nadir Sánchez Central Córdoba SdE Aktiv 101 / 110 40% 2 12.11.2028 -
Ryan McAidoo Oldham Athletic Aktiv 136 / 136 40% 2 09.11.2028 -
Celías Ingenthron Platense Aktiv 114 / 129 40% 1 09.11.2028 -
Nupe Godstime Bayelsa United Aktiv 96 / 97 40% 2 08.11.2028 -
Idris Ajiya Nasarawa United Aktiv 84 / 93 40% 2 07.11.2028 -
Pablo Lago Juventud Aktiv 108 / 115 40% 3 07.11.2028 -
Ramiro Jara Racing Aktiv 102 / 95 40% 1 06.11.2028 -
Mateo Aguiar Tigre Aktiv 102 / 115 40% 1 06.11.2028 -
Facundo Jainikoski Independiente Aktiv 111 / 127 40% 1 19.10.2028 -
Luis Otávio Orlando City Aktiv 123 / 130 40% 4 16.10.2028 -
Sebastian Rodriguez Houston Dynamo Aktiv 109 / 136 40% 3 15.10.2028 -
Emiliano Zambrano Cortulua Aktiv 94 / 105 40% 2 15.10.2028 -
Luis Carrero Zamora Aktiv 85 / 100 40% 1 14.10.2028 -
Leenhan Romero Iquique Aktiv 84 / 92 40% 1 12.10.2028 -
Chimobi Igwilo Rangers International Aktiv 94 / 96 40% 1 11.10.2028 -
Luka Andrade Montevideo City Torque Aktiv 113 / 111 40% 3 10.10.2028 -
Peyton Miller New England Revolution Aktiv 116 / 114 40% 2 10.10.2028 -
Paolo Dorini Estudiantes de Merida Aktiv 80 / 91 40% 2 09.10.2028 -
Matías Arias Vélez Aktiv 122 / 114 40% 2 07.10.2028 -
Lautaro Díaz San Martín Aktiv 98 / 104 40% 3 07.10.2028 -
Tahiel Peralta Racing Club Aktiv 115 / 115 40% 3 06.10.2028 -
Gustavo Lozano Metropolitanos Aktiv 101 / 102 40% 1 06.10.2028 -
Santiago Muñoz Quilmes Aktiv 78 / 91 40% 2 03.10.2028 -
Lionel Jara Central Córdoba SdE Aktiv 93 / 111 40% 1 02.10.2028 -
Luis Yanes Real Cartagena Aktiv 102 / 92 40% 3 15.09.2028 -
Joel Ezra Enyimba Aktiv 105 / 108 40% 2 13.09.2028 -
Lucca São Paulo Aktiv 120 / 126 40% 1 10.09.2028 -
Mateo Lizondo Colón Aktiv 81 / 110 40% 1 08.09.2028 -
Santiago Segovia Rosario Central Aktiv 107 / 120 40% 1 06.09.2028 -
Santos Torrealba Metropolitanos Aktiv 85 / 95 40% 1 04.09.2028 -
Julian Hall Real Salt Lake Aktiv 122 / 123 40% 1 04.09.2028 -
Benicio Romero Inter Aktiv 105 / 96 40% 1 22.08.2028 -
Martín D'Aurizio Huracán Aktiv 114 / 105 40% 1 22.08.2028 -
Alejandro Gómez Mirandés Aktiv 113 / 107 58% 1 14.08.2028 -
Thiago Sabella Banfield Aktiv 118 / 109 40% 1 07.08.2028 -
David Fernández Unión de Santa Fe Aktiv 107 / 101 40% 1 07.08.2028 -
Dylan Moody Cheltenham Town Aktiv 110 / 125 40% 1 20.06.2028 -
Ulíses López Barracas Central Aktiv 85 / 99 40% 1 20.06.2028 -
Jeremías Merlo Gimnasia La Plata Aktiv 126 / 128 40% 3 24.01.2028 -
Rémi Himbert AC Ajaccio Aktiv 126 / 129 40% 1 24.01.2028 -
Mao Hosoya Santos Aktiv 134 / 135 67% 1 01.01.2028 Befürworten
Matěj Ryneš AS Nancy Aktiv 122 / 123 67% 1 01.01.2028 Befürworten
Ibrahim Fullah Charlton Athletic Aktiv 126 / 127 40% 1 31.12.2027 -
Edison Gruezo Guadalajara Aktiv 93 / 115 40% 2 19.12.2027 -
Giovanni Baroni Talleres Aktiv 121 / 114 40% 2 19.12.2027 -
Victor Hernandez Santa Fe Aktiv 112 / 128 40% 5 18.12.2027 -
Pedro Baltika Aktiv 141 / 140 40% 1 16.12.2027 -
Mateo Peralta Danubio Aktiv 109 / 115 40% 1 16.12.2027 -
Emmanuel Ndubueze Shooting Stars Aktiv 96 / 96 40% 1 15.12.2027 -
Francisco Marchant Colo-Colo Aktiv 81 / 101 40% 1 13.12.2027 -
Luighi Palmeiras Aktiv 118 / 121 40% 1 12.12.2027 -
Dylan Cabral Arsenal Aktiv 92 / 97 40% 2 10.12.2027 -
Mateo Silvetti Seattle Sounders Aktiv 142 / 125 40% 1 10.12.2027 -
Ruben Ramos LA Galaxy Aktiv 83 / 104 40% 1 09.12.2027 -
Francisco Triver River Plate Aktiv 101 / 100 40% 1 09.12.2027 -
Sebastián Muñoz GIF Sundsvall Aktiv 103 / 96 40% 1 07.12.2027 -
Juan Rodríguez Cerro Largo Aktiv 83 / 111 40% 1 06.12.2027 -
Alex Verón Vélez Aktiv 114 / 112 40% 2 02.12.2027 -
Rafael Moreno Atletico Venezuela Aktiv 96 / 104 40% 1 01.12.2027 -
Nicolás Barros Schelotto Gimnasia La Plata Aktiv 111 / 129 40% 1 29.11.2027 -
Abdulrahman Hamisu Niger Tornadoes Aktiv 85 / 89 40% 1 26.11.2027 -
Tiago Pucciarelli IF Elfsborg Aktiv 116 / 105 40% 2 24.11.2027 -
Tomás Aranda Boca Juniors Aktiv 111 / 124 40% 1 24.11.2027 -
Hugo Rojas Instituto Aktiv 100 / 106 40% 1 03.11.2027 -
Trey Nyoni Rotherham United Aktiv 143 / 142 40% 1 01.11.2027 -
Josh Acheampong Everton Aktiv 140 / 148 40% 1 01.11.2027 -
Daniel Idoko Ikorodu City Aktiv 94 / 91 40% 1 31.08.2027 -
Timoteo Chamorro Talleres Aktiv 118 / 105 40% 1 31.08.2027 -
Tommaso Cecotti Carpi Aktiv 98 / 97 40% 1 09.08.2027 -
Facundo Rodríguez Talleres Aktiv 105 / 96 40% 1 28.06.2027 -
Oleh Ocheretko FC Dallas Aktiv 129 / 131 67% 1 01.06.2027 Befürworten
Carlos Espí Real Madrid Aktiv 129 / 119 40% 1 31.05.2027 -
George Brown Sheffield Wednesday Aktiv 97 / 111 40% 2 29.05.2027 -
Borna Knezović Casarano Aktiv 104 / 105 40% 2 28.05.2027 -
Ephraim Yeboah Bristol City Aktiv 97 / 94 40% 1 28.05.2027 -
Tibe De Vlieger KAA Gent Aktiv 103 / 112 40% 1 27.05.2027 -
Romelle Donovan Brentford Aktiv 128 / 132 40% 7 25.05.2027 -
Bariş Kalaycı Fatih Karagumruk Aktiv 108 / 99 40% 1 25.05.2027 -
Oscar Schwartau Norwich City Aktiv 127 / 132 40% 3 24.05.2027 -
Paulo Cardoso Sporting CP Aktiv 99 / 106 40% 1 23.05.2027 -
Yusi Alavés Aktiv 130 / 134 40% 1 22.05.2027 -
Bazoumana Touré Newcastle United Aktiv 130 / 136 40% 4 21.05.2027 -
Lander Astiazarán Real Sociedad Aktiv 110 / 107 40% 3 19.05.2027 -
Eliás Montiel Borussia Dortmund Aktiv 122 / 141 40% 1 19.05.2027 -
Víctor Guzmán Sporting CP Aktiv 87 / 95 40% 1 18.05.2027 -
Lucas Høgsberg RC Strasbourg Aktiv 126 / 147 40% 3 16.05.2027 -
Louis Leroux FC Nantes Aktiv 119 / 124 40% 3 11.05.2027 -
Martim Cunha Porto Aktiv 107 / 105 40% 1 06.05.2027 -
Izan Merino Málaga Aktiv 126 / 126 40% 4 04.05.2027 -
Eduardo Lozano Botafogo Aktiv 129 / 156 40% 1 04.05.2027 -
Othmane Maamma Watford Aktiv 132 / 128 40% 7 26.04.2027 -
Gianluca Prestianni Benfica Aktiv 140 / 138 40% 5 21.04.2027 -
Yussif Saidu Zaragoza Aktiv 131 / 118 40% 2 09.04.2027 -
Olívio Tomé Benfica Aktiv 114 / 114 40% 2 08.04.2027 -
Samir El Mourabet RC Strasbourg Aktiv 114 / 135 40% 1 07.04.2027 -
Senny Mayulu Paris Saint-Germain Aktiv 136 / 145 40% 2 05.04.2027 -
Patrick Preciado Deportivo Pasto Aktiv 116 / 105 40% 2 04.04.2027 -
Williams Wonah AS Police Aktiv 84 / 85 40% 1 04.04.2027 -
Rocco Vata Watford Aktiv 124 / 130 40% 3 27.03.2027 -
Gessime Yassine RC Strasbourg Aktiv 119 / 125 40% 2 25.03.2027 -
Sebastián Bonilla Victoriia Sumy Aktiv 84 / 82 40% 1 25.03.2027 -
Eduardo Fernandes Benfica Aktiv 98 / 112 40% 2 23.03.2027 -
Marcos Arias Metalurh Zaporizhzhia Aktiv 81 / 100 40% 1 21.03.2027 -
Asanele Bonani Chippa United Aktiv 78 / 98 40% 1 19.03.2027 -
Bernardes Benfica Aktiv 95 / 97 40% 1 19.03.2027 -
Sindre Walle Egeli Udinese Aktiv 137 / 139 40% 1 18.03.2027 -
Mathys Tel Tottenham Aktiv 145 / 141 40% 1 17.03.2027 -
Cheveyo Tsawa Club Brugge Aktiv 121 / 126 40% 1 04.03.2027 -
Mohamadou Kanté Crawley Town Aktiv 112 / 123 40% 1 28.02.2027 -
Malick Fofana Sunderland Aktiv 142 / 155 40% 5 27.02.2027 -
Ethan Williams Peterborough United Aktiv 108 / 111 40% 2 23.02.2027 -
Caleb Yirenkyi Coventry City Aktiv 136 / 147 40% 1 22.02.2027 -
Sam Amo-Ameyaw RC Strasbourg Aktiv 133 / 128 40% 1 20.02.2027 -
Joaquin Seys Club Brugge Aktiv 123 / 134 40% 1 17.02.2027 -
Martin Gjorgievski Zbrojovka Brno Aktiv 113 / 114 40% 2 08.02.2027 -
Dehmaine Tabibou FC Nantes Aktiv 118 / 126 40% 2 07.02.2027 -
Nicolás Ibáñez Cruz Azul Aktiv 132 / 125 40% 1 26.01.2027 -
Ismael Díaz Leon Aktiv 142 / 138 40% 1 19.01.2027 -
Thiago Parga Huracán Aktiv 101 / 93 40% 1 01.01.2027 -
Kyriani Sabbe Club Brugge Aktiv 110 / 130 40% 3 30.12.2026 -
William Gomes Porto Aktiv 134 / 145 40% 1 27.12.2026 -
Kirill Glebov CSKA Moscow Aktiv 138 / 132 40% 1 26.12.2026 -
Bobby Clark Derby County Aktiv 115 / 121 40% 1 18.12.2026 -
Tudor Mendel-Idowu Gubbio Aktiv 103 / 94 40% 1 18.12.2026 -
Diego Gaitán Maipú Aktiv 96 / 128 40% 1 09.12.2026 -
Jan Virgili Club Brugge Aktiv 121 / 142 40% 1 07.12.2026 Mehr Infos nötig
Agustín Medina Lanús Aktiv 110 / 127 40% 2 19.11.2026 -
James Bacca La Equidad Aktiv 128 / 128 40% 2 17.11.2026 -
Nahuel Arias San Lorenzo Aktiv 112 / 127 40% 2 16.11.2026 -
Facundo Di Biasi Gimnasia La Plata Aktiv 103 / 134 40% 2 14.11.2026 -
Matías Magdaleno Estudiantes Aktiv 114 / 100 40% 1 13.11.2026 -
Mathias De Amorim Famalicao Aktiv 119 / 140 40% 1 03.11.2026 -
Kevin Contreras Union Espanola Aktiv 82 / 90 40% 1 19.10.2026 -
Nahuel Leivas Montevideo City Torque Aktiv 99 / 98 40% 1 18.10.2026 -
Lautaro Vargas Unión de Santa Fe Aktiv 128 / 127 40% 1 16.10.2026 -
Gonzalo Bordón Independiente Aktiv 122 / 128 40% 1 16.10.2026 -
Santiago Fernández Talleres Aktiv 130 / 136 40% 2 15.10.2026 -
Pedro Bravo FC Midtjylland Aktiv 133 / 129 40% 1 08.10.2026 -
Geanfranco Rodríguez Defensor Sporting Aktiv 96 / 105 40% 1 05.10.2026 -
Thiago Acosta River Plate Aktiv 111 / 108 40% 1 20.09.2026 -
Federico Acosta Miramar Misiones Aktiv 94 / 91 40% 1 17.09.2026 -
Léyder Morán Once Caldas Aktiv 104 / 107 40% 1 11.09.2026 -
Lucas Richarte Temperley Aktiv 87 / 106 40% 1 08.09.2026 -
Alan Forneris Racing Club Aktiv 105 / 116 40% 1 08.09.2026 -
Lautaro Quiroga Defensa y Justicia Aktiv 90 / 98 40% 1 07.09.2026 -
Ignacio Isla Unión de Santa Fe Aktiv 87 / 118 40% 1 25.08.2026 -
Facundo Montiel Colegiales Aktiv 103 / 91 40% 1 25.08.2026 -
Julien Ponceau Valladolid Aktiv 124 / 124 58% 1 17.08.2026 -
Enzo Gramajo Vélez Aktiv 93 / 81 40% 1 10.08.2026 -
Franco Yennerich Talleres Aktiv 87 / 92 40% 1 10.08.2026 -
Pablo Ferreira Platense Aktiv 93 / 103 40% 1 02.08.2026 -